Time;durP1;ratioP1;P1;durP2;ratioP2;P2;SDS_P1;SDS_P2;PMS_P1;PMS_P2;Temp;Humidity;BMP_temperature;BMP_pressure;BME280_temperature;BME280_humidity;BME280_pressure;Samples;Min_cycle;Max_cycle;Signal;HPM_P1;HPM_P2
2023/03/12 00:02:06;;;;;;;7.78;5.15;;;;;;;;;;4980843;28;20022;-63
2023/03/12 00:04:33;;;;;;;7.65;4.88;;;;;;;;;;4982536;28;20031;-62
2023/03/12 00:06:58;;;;;;;16.33;5.63;;;;;;;;;;4982510;28;20089;-64
2023/03/12 00:09:24;;;;;;;11.10;4.63;;;;;;;;;;4981358;28;20454;-63
2023/03/12 00:11:49;;;;;;;8.00;4.65;;;;;;;;;;4983542;28;20100;-62
2023/03/12 00:14:14;;;;;;;11.93;5.30;;;;;;;;;;4982633;28;20031;-61
2023/03/12 00:16:40;;;;;;;9.25;4.60;;;;;;;;;;4984801;28;20026;-60
2023/03/12 00:19:05;;;;;;;10.60;4.85;;;;;;;;;;4984599;28;20367;-61
2023/03/12 00:21:30;;;;;;;12.10;6.28;;;;;;;;;;4982433;28;20704;-62
2023/03/12 00:23:56;;;;;;;16.80;7.38;;;;;;;;;;4985868;28;20030;-62
2023/03/12 00:26:21;;;;;;;20.90;6.85;;;;;;;;;;4982405;28;20035;-61
2023/03/12 00:28:47;;;;;;;17.13;7.68;;;;;;;;;;4983095;28;20073;-61
2023/03/12 00:31:13;;;;;;;12.17;6.93;;;;;;;;;;4981294;28;20145;-60
2023/03/12 00:33:38;;;;;;;17.55;6.50;;;;;;;;;;4984935;28;20084;-62
2023/03/12 00:36:03;;;;;;;10.95;5.57;;;;;;;;;;4990246;28;20756;-63
2023/03/12 00:38:29;;;;;;;13.30;5.80;;;;;;;;;;4985071;28;20117;-62
2023/03/12 00:40:54;;;;;;;13.18;5.47;;;;;;;;;;4986245;28;20076;-62
2023/03/12 00:43:19;;;;;;;13.30;5.65;;;;;;;;;;4985926;28;20053;-63
2023/03/12 00:45:45;;;;;;;12.23;4.90;;;;;;;;;;4985488;28;20041;-61
2023/03/12 00:48:10;;;;;;;13.43;4.97;;;;;;;;;;4987130;28;20121;-61
2023/03/12 00:50:35;;;;;;;8.32;4.68;;;;;;;;;;4987178;28;20044;-60
2023/03/12 00:53:01;;;;;;;10.80;4.72;;;;;;;;;;4985107;28;20720;-63
2023/03/12 00:55:26;;;;;;;11.80;5.20;;;;;;;;;;4985403;28;20078;-65
2023/03/12 00:57:51;;;;;;;19.35;7.05;;;;;;;;;;4986142;28;20022;-64
2023/03/12 01:00:18;;;;;;;15.73;6.53;;;;;;;;;;4984452;28;20688;-62
2023/03/12 01:02:43;;;;;;;15.63;8.10;;;;;;;;;;4968270;28;20033;-62
2023/03/12 01:05:10;;;;;;;22.33;8.85;;;;;;;;;;4983654;28;20041;-63
2023/03/12 01:07:35;;;;;;;22.30;9.68;;;;;;;;;;4987088;28;20479;-62
2023/03/12 01:10:00;;;;;;;21.10;10.00;;;;;;;;;;4984426;28;20034;-66
2023/03/12 01:12:26;;;;;;;21.63;9.38;;;;;;;;;;4986123;28;20113;-61
2023/03/12 01:14:51;;;;;;;15.90;7.82;;;;;;;;;;4984621;28;20037;-62
2023/03/12 01:17:17;;;;;;;16.08;8.50;;;;;;;;;;4988282;28;20396;-62
2023/03/12 01:19:42;;;;;;;21.15;8.35;;;;;;;;;;4985473;28;20034;-64
2023/03/12 01:22:07;;;;;;;19.48;8.13;;;;;;;;;;4985100;28;20034;-61
2023/03/12 01:24:33;;;;;;;18.52;9.70;;;;;;;;;;4985045;28;20392;-65
2023/03/12 01:26:58;;;;;;;27.77;9.48;;;;;;;;;;4988920;28;20033;-62
2023/03/12 01:29:23;;;;;;;17.85;9.15;;;;;;;;;;4985352;28;20034;-62
2023/03/12 01:31:49;;;;;;;17.90;9.00;;;;;;;;;;4985040;28;20127;-61
2023/03/12 01:34:14;;;;;;;21.38;9.32;;;;;;;;;;4983377;28;20039;-62
2023/03/12 01:36:39;;;;;;;17.50;8.45;;;;;;;;;;4985688;28;20041;-64
2023/03/12 01:39:05;;;;;;;14.70;8.13;;;;;;;;;;4984588;28;20606;-66
2023/03/12 01:41:34;;;;;;;18.45;7.82;;;;;;;;;;4985660;28;20760;-62
2023/03/12 01:44:02;;;;;;;14.60;6.95;;;;;;;;;;4982038;28;20035;-62
2023/03/12 01:46:35;;;;;;;14.85;6.90;;;;;;;;;;4984111;28;20597;-62
2023/03/12 01:49:08;;;;;;;15.63;7.05;;;;;;;;;;4982355;28;20061;-62
2023/03/12 01:51:53;;;;;;;14.10;7.10;;;;;;;;;;4999950;28;20096;-62
2023/03/12 01:54:20;;;;;;;18.38;7.68;;;;;;;;;;4989439;28;20038;-61
2023/03/12 01:56:46;;;;;;;17.15;7.28;;;;;;;;;;4968357;28;20497;-61
2023/03/12 01:59:14;;;;;;;15.93;7.18;;;;;;;;;;4968926;28;20034;-62
2023/03/12 02:01:40;;;;;;;17.88;7.57;;;;;;;;;;4984192;28;20435;-62
2023/03/12 02:04:06;;;;;;;13.98;6.90;;;;;;;;;;4985967;28;20407;-63
2023/03/12 02:06:35;;;;;;;16.52;7.22;;;;;;;;;;4981398;28;20125;-64
2023/03/12 02:09:01;;;;;;;13.82;7.53;;;;;;;;;;4985134;28;20478;-62
2023/03/12 02:11:27;;;;;;;26.92;9.32;;;;;;;;;;4984382;28;20054;-63
2023/03/12 02:13:52;;;;;;;16.75;7.22;;;;;;;;;;4983728;28;20428;-62
2023/03/12 02:16:19;;;;;;;22.13;9.05;;;;;;;;;;4982645;28;20514;-61
2023/03/12 02:18:44;;;;;;;16.58;8.57;;;;;;;;;;4973778;28;20029;-62
2023/03/12 02:21:16;;;;;;;21.13;8.45;;;;;;;;;;4981161;28;20034;-62
2023/03/12 02:23:42;;;;;;;20.33;8.48;;;;;;;;;;4988552;28;20038;-62
2023/03/12 02:26:08;;;;;;;19.40;8.82;;;;;;;;;;4985026;28;20046;-62
2023/03/12 02:28:41;;;;;;;23.77;8.65;;;;;;;;;;4981857;28;20045;-65
2023/03/12 02:31:07;;;;;;;18.80;9.00;;;;;;;;;;4983067;28;20041;-61
2023/03/12 02:33:33;;;;;;;25.73;11.20;;;;;;;;;;4966862;28;20030;-61
2023/03/12 02:35:58;;;;;;;24.05;11.25;;;;;;;;;;4985866;28;20574;-62
2023/03/12 02:38:44;;;;;;;25.52;11.20;;;;;;;;;;4981111;28;20220;-63
2023/03/12 02:41:09;;;;;;;32.45;11.93;;;;;;;;;;4981542;28;20046;-62
2023/03/12 02:43:36;;;;;;;27.48;9.75;;;;;;;;;;4986356;28;20545;-62
2023/03/12 02:46:02;;;;;;;18.13;8.83;;;;;;;;;;4982289;28;20066;-64
2023/03/12 02:48:27;;;;;;;24.38;10.93;;;;;;;;;;4983567;28;20315;-62
2023/03/12 02:50:53;;;;;;;17.15;8.48;;;;;;;;;;4978982;28;20037;-63
2023/03/12 02:53:18;;;;;;;21.02;9.00;;;;;;;;;;4984014;28;20062;-62
2023/03/12 02:55:43;;;;;;;17.73;8.55;;;;;;;;;;4983259;28;20590;-64
2023/03/12 02:58:09;;;;;;;18.45;9.25;;;;;;;;;;4981912;28;20479;-62
2023/03/12 03:00:35;;;;;;;17.00;8.40;;;;;;;;;;4983715;28;20035;-62
2023/03/12 03:03:00;;;;;;;18.80;9.15;;;;;;;;;;4982971;28;20463;-64
2023/03/12 03:05:26;;;;;;;20.95;9.15;;;;;;;;;;4968075;28;20023;-61
2023/03/12 03:07:52;;;;;;;16.45;8.40;;;;;;;;;;4976585;28;20041;-61
2023/03/12 03:10:17;;;;;;;19.05;8.10;;;;;;;;;;4982582;28;20109;-62
2023/03/12 03:12:43;;;;;;;22.63;7.85;;;;;;;;;;4992489;28;20031;-63
2023/03/12 03:15:09;;;;;;;16.65;6.85;;;;;;;;;;4982194;28;20030;-62
2023/03/12 03:17:34;;;;;;;12.98;6.85;;;;;;;;;;4999142;28;20073;-62
2023/03/12 03:20:00;;;;;;;21.42;8.90;;;;;;;;;;4983385;28;20120;-63
2023/03/12 03:22:25;;;;;;;19.67;8.40;;;;;;;;;;4982331;28;20101;-63
2023/03/12 03:24:51;;;;;;;14.77;7.68;;;;;;;;;;4986890;28;20647;-62
2023/03/12 03:27:17;;;;;;;12.63;7.45;;;;;;;;;;5000118;28;20046;-61
2023/03/12 03:29:44;;;;;;;18.88;6.97;;;;;;;;;;4966589;28;20038;-62
2023/03/12 03:32:09;;;;;;;16.48;7.85;;;;;;;;;;4985514;28;20034;-63
2023/03/12 03:34:34;;;;;;;14.85;7.22;;;;;;;;;;4984198;28;20045;-62
2023/03/12 03:37:00;;;;;;;18.13;7.43;;;;;;;;;;4982328;28;20038;-62
2023/03/12 03:39:27;;;;;;;16.30;6.88;;;;;;;;;;4996904;28;20037;-62
2023/03/12 03:41:52;;;;;;;;;;;;;;;;;;4977940;28;20042;-61
2023/03/12 03:44:21;;;;;;;15.05;6.97;;;;;;;;;;4983673;28;19913;-61
2023/03/12 03:46:48;;;;;;;22.50;8.18;;;;;;;;;;4982267;28;20062;-65
2023/03/12 03:49:14;;;;;;;21.60;8.82;;;;;;;;;;4980278;28;20069;-65
2023/03/12 03:51:41;;;;;;;23.02;8.80;;;;;;;;;;4982013;28;20037;-63
2023/03/12 03:54:08;;;;;;;18.83;7.95;;;;;;;;;;4980745;28;20468;-61
2023/03/12 03:56:34;;;;;;;22.92;7.00;;;;;;;;;;4991015;28;20634;-66
2023/03/12 03:59:01;;;;;;;17.25;7.82;;;;;;;;;;4979727;28;20095;-63
2023/03/12 04:01:27;;;;;;;17.58;8.02;;;;;;;;;;4983346;28;20133;-63
2023/03/12 04:03:54;;;;;;;22.00;7.93;;;;;;;;;;4966495;28;20033;-63
2023/03/12 04:06:19;;;;;;;12.63;6.75;;;;;;;;;;4984663;28;20026;-63
2023/03/12 04:08:45;;;;;;;13.20;6.93;;;;;;;;;;4981157;28;20116;-63
2023/03/12 04:11:18;;;;;;;17.77;7.55;;;;;;;;;;4982584;28;20057;-63
2023/03/12 04:13:44;;;;;;;15.73;6.95;;;;;;;;;;4988664;28;20080;-62
2023/03/12 04:16:11;;;;;;;16.10;7.35;;;;;;;;;;4982144;28;20049;-62
2023/03/12 04:18:36;;;;;;;20.10;7.40;;;;;;;;;;4986761;28;20030;-62
2023/03/12 04:21:06;;;;;;;16.58;7.28;;;;;;;;;;4985900;28;20026;-63
2023/03/12 04:23:32;;;;;;;15.77;7.10;;;;;;;;;;4987418;28;20117;-62
2023/03/12 04:25:57;;;;;;;15.98;7.63;;;;;;;;;;4988623;28;20038;-62
2023/03/12 04:28:23;;;;;;;14.20;6.72;;;;;;;;;;4988312;28;20085;-63
2023/03/12 04:30:59;;;;;;;16.77;7.82;;;;;;;;;;4987707;28;20040;-64
2023/03/12 04:33:25;;;;;;;20.15;7.20;;;;;;;;;;4979031;28;20128;-63
2023/03/12 04:35:51;;;;;;;20.83;8.27;;;;;;;;;;4985923;28;20526;-63
2023/03/12 04:38:19;;;;;;;15.25;7.35;;;;;;;;;;4984439;28;20566;-62
2023/03/12 04:40:44;;;;;;;18.57;7.07;;;;;;;;;;4983740;28;20101;-62
2023/03/12 04:43:10;;;;;;;19.83;7.60;;;;;;;;;;4978231;28;20122;-62
2023/03/12 04:45:36;;;;;;;20.77;7.50;;;;;;;;;;4989357;28;20040;-62
2023/03/12 04:48:03;;;;;;;12.30;6.43;;;;;;;;;;4986907;28;20034;-62
2023/03/12 04:50:28;;;;;;;14.55;6.45;;;;;;;;;;4983304;28;20109;-63
2023/03/12 04:52:53;;;;;;;16.33;6.80;;;;;;;;;;4994167;28;20039;-62
2023/03/12 04:55:19;;;;;;;14.32;6.70;;;;;;;;;;4986499;28;20052;-63
2023/03/12 04:57:44;;;;;;;14.48;7.13;;;;;;;;;;4986618;28;20038;-61
2023/03/12 05:00:12;;;;;;;16.52;7.40;;;;;;;;;;4986732;28;20022;-63
2023/03/12 05:02:38;;;;;;;13.48;6.68;;;;;;;;;;4985232;28;20134;-61
2023/03/12 05:05:04;;;;;;;15.00;7.00;;;;;;;;;;4977343;28;20153;-61
2023/03/12 05:07:29;;;;;;;14.10;6.88;;;;;;;;;;4985062;28;20106;-62
2023/03/12 05:09:55;;;;;;;16.23;6.90;;;;;;;;;;4983791;28;20469;-61
2023/03/12 05:12:20;;;;;;;19.00;7.82;;;;;;;;;;4985258;28;20030;-61
2023/03/12 05:14:46;;;;;;;17.30;7.28;;;;;;;;;;4987942;28;20038;-61
2023/03/12 05:17:11;;;;;;;16.00;7.07;;;;;;;;;;4989522;28;20034;-63
2023/03/12 05:19:36;;;;;;;20.83;7.05;;;;;;;;;;4982367;28;20038;-61
2023/03/12 05:22:02;;;;;;;19.13;7.28;;;;;;;;;;4986483;28;20034;-62
2023/03/12 05:24:28;;;;;;;16.50;8.17;;;;;;;;;;4966746;28;20046;-62
2023/03/12 05:26:54;;;;;;;22.08;7.25;;;;;;;;;;4989976;28;20360;-62
2023/03/12 05:29:22;;;;;;;28.27;9.30;;;;;;;;;;4993848;28;20450;-63
2023/03/12 05:31:48;;;;;;;18.35;7.80;;;;;;;;;;4985770;28;20496;-61
2023/03/12 05:34:14;;;;;;;23.58;9.60;;;;;;;;;;4975236;28;20027;-64
2023/03/12 05:36:42;;;;;;;20.85;9.75;;;;;;;;;;4974996;28;20043;-64
2023/03/12 05:39:07;;;;;;;21.65;8.63;;;;;;;;;;4984894;28;20395;-62
2023/03/12 05:41:33;;;;;;;23.27;8.57;;;;;;;;;;5000407;28;20044;-63
2023/03/12 05:44:06;;;;;;;21.25;8.80;;;;;;;;;;4962488;28;20056;-62
2023/03/12 05:46:31;;;;;;;18.85;8.32;;;;;;;;;;4984328;28;20030;-62
2023/03/12 05:48:58;;;;;;;19.80;8.47;;;;;;;;;;4984876;28;20724;-64
2023/03/12 05:51:23;;;;;;;19.92;8.73;;;;;;;;;;4985310;28;20038;-62
2023/03/12 05:53:49;;;;;;;23.63;9.05;;;;;;;;;;4983971;28;20038;-63
2023/03/12 05:56:16;;;;;;;16.80;8.95;;;;;;;;;;4983133;28;20057;-62
2023/03/12 05:58:41;;;;;;;24.13;8.30;;;;;;;;;;4984481;28;20031;-62
2023/03/12 06:01:11;;;;;;;16.92;8.50;;;;;;;;;;4973946;28;20062;-62
2023/03/12 06:03:36;;;;;;;23.23;8.82;;;;;;;;;;4973365;28;20716;-64
2023/03/12 06:06:02;;;;;;;26.20;9.40;;;;;;;;;;4982431;28;20034;-62
2023/03/12 06:08:27;;;;;;;30.65;9.63;;;;;;;;;;4983738;28;20034;-62
2023/03/12 06:10:53;;;;;;;24.38;8.88;;;;;;;;;;4981811;28;20053;-63
2023/03/12 06:13:21;;;;;;;17.33;8.80;;;;;;;;;;4980622;28;20572;-62
2023/03/12 06:15:46;;;;;;;26.87;9.27;;;;;;;;;;4980800;28;20125;-64
2023/03/12 06:18:13;;;;;;;21.17;9.38;;;;;;;;;;4981665;28;20326;-64
2023/03/12 06:20:38;;;;;;;27.98;10.40;;;;;;;;;;4983506;28;20117;-63
2023/03/12 06:23:03;;;;;;;26.73;9.48;;;;;;;;;;4985114;28;20494;-64
2023/03/12 06:25:30;;;;;;;19.85;10.10;;;;;;;;;;4985045;28;20026;-61
2023/03/12 06:27:56;;;;;;;26.58;9.95;;;;;;;;;;4982282;28;20494;-64
2023/03/12 06:30:21;;;;;;;21.70;9.82;;;;;;;;;;4982765;28;20030;-65
2023/03/12 06:32:46;;;;;;;24.80;9.55;;;;;;;;;;4984424;28;20033;-61
2023/03/12 06:35:12;;;;;;;23.27;9.70;;;;;;;;;;4981676;28;20651;-62
2023/03/12 06:37:37;;;;;;;21.48;9.05;;;;;;;;;;4983675;28;20042;-63
2023/03/12 06:40:03;;;;;;;19.40;9.07;;;;;;;;;;4982433;28;20022;-64
2023/03/12 06:42:29;;;;;;;22.13;10.20;;;;;;;;;;4983035;28;20034;-60
2023/03/12 06:44:54;;;;;;;36.08;19.77;;;;;;;;;;4984878;28;20384;-63
2023/03/12 06:47:19;;;;;;;32.47;18.00;;;;;;;;;;4984511;28;20547;-62
2023/03/12 06:49:45;;;;;;;29.50;14.77;;;;;;;;;;4983246;28;20026;-63
2023/03/12 06:52:10;;;;;;;33.15;14.35;;;;;;;;;;4983789;28;20031;-64
2023/03/12 06:54:35;;;;;;;27.17;12.38;;;;;;;;;;4982256;28;20037;-62
2023/03/12 06:57:00;;;;;;;25.15;9.45;;;;;;;;;;4983227;28;20026;-62
2023/03/12 06:59:26;;;;;;;19.65;9.90;;;;;;;;;;4982894;28;20042;-61
2023/03/12 07:01:51;;;;;;;25.35;9.50;;;;;;;;;;4981779;28;20124;-60
2023/03/12 07:04:17;;;;;;;26.38;10.18;;;;;;;;;;4982542;28;20141;-61
2023/03/12 07:06:42;;;;;;;21.75;9.48;;;;;;;;;;4984672;28;20096;-61
2023/03/12 07:09:07;;;;;;;19.80;9.63;;;;;;;;;;4974413;28;20485;-65
2023/03/12 07:11:33;;;;;;;22.92;10.90;;;;;;;;;;4983737;28;20517;-61
2023/03/12 07:13:58;;;;;;;16.40;9.52;;;;;;;;;;4983216;28;20033;-60
2023/03/12 07:16:23;;;;;;;31.75;13.18;;;;;;;;;;4982453;28;20109;-63
2023/03/12 07:18:49;;;;;;;28.92;13.27;;;;;;;;;;4981276;28;20034;-62
2023/03/12 07:21:21;;;;;;;35.38;16.23;;;;;;;;;;4983084;28;20130;-62
2023/03/12 07:23:47;;;;;;;45.55;19.05;;;;;;;;;;4981580;28;20104;-62
2023/03/12 07:26:13;;;;;;;29.52;14.63;;;;;;;;;;4982994;28;20033;-62
2023/03/12 07:28:38;;;;;;;32.45;13.68;;;;;;;;;;4982142;28;20038;-65
2023/03/12 07:31:04;;;;;;;26.38;11.93;;;;;;;;;;4981516;28;20030;-61
2023/03/12 07:33:29;;;;;;;22.38;11.68;;;;;;;;;;4983764;28;20594;-64
2023/03/12 07:35:55;;;;;;;25.10;11.65;;;;;;;;;;4979966;28;20096;-60
2023/03/12 07:38:20;;;;;;;24.52;11.55;;;;;;;;;;4983489;28;20141;-60
2023/03/12 07:40:49;;;;;;;24.25;11.07;;;;;;;;;;4981152;28;20065;-61
2023/03/12 07:43:14;;;;;;;24.55;10.82;;;;;;;;;;4981036;28;20034;-63
2023/03/12 07:45:40;;;;;;;21.50;10.70;;;;;;;;;;4975220;28;20038;-62
2023/03/12 07:48:06;;;;;;;22.23;10.75;;;;;;;;;;4988170;28;20058;-60
2023/03/12 07:50:31;;;;;;;23.48;10.90;;;;;;;;;;4985503;28;20673;-62
2023/03/12 07:52:56;;;;;;;24.95;12.05;;;;;;;;;;4987897;28;20026;-62
2023/03/12 07:55:22;;;;;;;24.80;13.82;;;;;;;;;;4985668;28;20045;-60
2023/03/12 07:57:47;;;;;;;39.22;18.52;;;;;;;;;;4988205;28;20026;-61
2023/03/12 08:00:14;;;;;;;50.60;24.95;;;;;;;;;;4981330;28;20116;-60
2023/03/12 08:02:39;;;;;;;36.00;20.98;;;;;;;;;;4983454;28;20038;-62
2023/03/12 08:05:05;;;;;;;29.63;12.15;;;;;;;;;;4985585;28;20108;-62
2023/03/12 08:07:34;;;;;;;20.73;10.15;;;;;;;;;;4985169;28;20329;-61
2023/03/12 08:10:00;;;;;;;21.23;10.18;;;;;;;;;;4985953;28;20101;-60
2023/03/12 08:12:26;;;;;;;22.43;10.03;;;;;;;;;;4984648;28;20044;-62
2023/03/12 08:14:51;;;;;;;17.70;9.27;;;;;;;;;;4987497;28;20683;-60
2023/03/12 08:17:17;;;;;;;15.52;8.05;;;;;;;;;;4986558;28;20030;-61
2023/03/12 08:19:42;;;;;;;22.45;8.55;;;;;;;;;;4986599;28;20034;-61
2023/03/12 08:22:07;;;;;;;38.33;12.68;;;;;;;;;;4968403;28;20484;-61
2023/03/12 08:24:33;;;;;;;26.98;9.90;;;;;;;;;;4987151;28;20038;-61
2023/03/12 08:26:59;;;;;;;57.03;17.55;;;;;;;;;;4984078;28;20117;-61
2023/03/12 08:29:24;;;;;;;60.55;18.35;;;;;;;;;;4985472;28;20026;-59
2023/03/12 08:31:49;;;;;;;31.83;12.45;;;;;;;;;;4987275;28;20839;-60
2023/03/12 08:34:15;;;;;;;16.77;9.05;;;;;;;;;;4986164;28;20030;-59
2023/03/12 08:36:40;;;;;;;18.05;8.85;;;;;;;;;;4983385;28;20073;-62
2023/03/12 08:39:05;;;;;;;23.60;10.77;;;;;;;;;;4986574;28;20081;-60
2023/03/12 08:41:30;;;;;;;19.73;10.93;;;;;;;;;;4995381;28;20037;-60
2023/03/12 08:43:56;;;;;;;16.75;9.43;;;;;;;;;;4986595;28;20487;-62
2023/03/12 08:46:21;;;;;;;19.98;9.73;;;;;;;;;;4986750;28;20041;-63
2023/03/12 08:48:46;;;;;;;17.15;9.00;;;;;;;;;;4987616;28;20557;-60
2023/03/12 08:51:12;;;;;;;14.98;8.52;;;;;;;;;;4986476;28;20034;-61
2023/03/12 08:53:37;;;;;;;18.77;9.23;;;;;;;;;;4985529;28;20156;-61
2023/03/12 08:56:03;;;;;;;14.68;8.07;;;;;;;;;;4984263;28;20443;-60
2023/03/12 08:58:28;;;;;;;14.23;7.43;;;;;;;;;;4984004;28;20403;-61
2023/03/12 09:00:54;;;;;;;22.83;9.82;;;;;;;;;;4986110;28;20034;-60
2023/03/12 09:03:20;;;;;;;18.00;9.10;;;;;;;;;;4985568;28;20030;-60
2023/03/12 09:05:46;;;;;;;17.60;9.20;;;;;;;;;;4988210;28;20385;-61
2023/03/12 09:08:11;;;;;;;19.52;10.02;;;;;;;;;;4985395;28;20169;-61
2023/03/12 09:10:37;;;;;;;28.60;12.80;;;;;;;;;;4987058;28;20037;-63
2023/03/12 09:13:04;;;;;;;30.13;13.30;;;;;;;;;;4987527;28;20134;-61
2023/03/12 09:15:30;;;;;;;37.92;16.98;;;;;;;;;;4986668;28;20042;-60
2023/03/12 09:17:55;;;;;;;27.77;12.98;;;;;;;;;;4988729;28;20101;-62
2023/03/12 09:20:21;;;;;;;84.63;26.77;;;;;;;;;;4986656;28;20069;-61
2023/03/12 09:22:46;;;;;;;47.38;17.83;;;;;;;;;;4984778;28;21305;-58
2023/03/12 09:25:11;;;;;;;31.92;15.15;;;;;;;;;;4987837;28;20038;-60
2023/03/12 09:27:37;;;;;;;18.17;8.30;;;;;;;;;;4985293;28;20049;-59
2023/03/12 09:30:04;;;;;;;22.55;11.88;;;;;;;;;;4986059;28;20078;-60
2023/03/12 09:32:29;;;;;;;17.90;8.90;;;;;;;;;;5000541;28;20042;-60
2023/03/12 09:34:55;;;;;;;16.30;8.35;;;;;;;;;;4985551;28;20380;-61
2023/03/12 09:37:20;;;;;;;16.58;8.77;;;;;;;;;;4984060;28;20030;-60
2023/03/12 09:39:47;;;;;;;15.70;8.07;;;;;;;;;;4987365;28;20045;-66
2023/03/12 09:42:13;;;;;;;;;;;;;;;;;;4987880;28;20045;-63
2023/03/12 09:44:41;;;;;;;24.83;12.00;;;;;;;;;;4989798;28;19918;-66
2023/03/12 09:47:08;;;;;;;18.40;10.43;;;;;;;;;;4984886;28;20427;-63
2023/03/12 09:49:41;;;;;;;15.55;9.45;;;;;;;;;;4988697;28;20034;-61
2023/03/12 09:52:16;;;;;;;22.92;11.55;;;;;;;;;;4977464;28;20472;-62
2023/03/12 09:54:55;;;;;;;21.63;11.45;;;;;;;;;;4983177;28;20045;-62
2023/03/12 09:57:22;;;;;;;20.90;9.55;;;;;;;;;;4981880;28;20031;-63
2023/03/12 09:59:48;;;;;;;19.48;9.55;;;;;;;;;;4984410;28;20026;-61
2023/03/12 10:02:27;;;;;;;18.20;9.65;;;;;;;;;;4982248;28;20026;-63
2023/03/12 10:05:13;;;;;;;17.63;10.00;;;;;;;;;;4984212;28;20776;-62
2023/03/12 10:07:43;;;;;;;21.75;10.40;;;;;;;;;;4982684;28;20129;-60
2023/03/12 10:10:27;;;;;;;21.25;10.13;;;;;;;;;;4982406;28;20407;-60
2023/03/12 10:13:02;;;;;;;19.67;10.02;;;;;;;;;;4980653;28;20043;-59
2023/03/12 10:15:37;;;;;;;20.85;9.40;;;;;;;;;;4982052;28;20486;-59
2023/03/12 10:18:22;;;;;;;17.90;8.60;;;;;;;;;;4983104;28;21568;-59
2023/03/12 10:20:50;;;;;;;18.80;9.32;;;;;;;;;;4982970;28;20042;-60
2023/03/12 10:23:51;;;;;;;16.35;8.55;;;;;;;;;;4982551;28;20034;-59
2023/03/12 10:26:35;;;;;;;15.68;8.82;;;;;;;;;;4978819;28;20128;-59
2023/03/12 10:29:14;;;;;;;19.38;9.75;;;;;;;;;;4981678;28;20092;-60
2023/03/12 10:32:00;;;;;;;19.17;9.38;;;;;;;;;;4980390;28;20038;-61
2023/03/12 10:34:44;;;;;;;16.67;8.80;;;;;;;;;;4973950;28;20053;-59
2023/03/12 10:37:19;;;;;;;14.35;8.63;;;;;;;;;;4982617;28;20624;-60
2023/03/12 10:39:44;;;;;;;18.30;9.82;;;;;;;;;;4977162;28;20034;-61
2023/03/12 10:42:14;;;;;;;18.00;9.77;;;;;;;;;;4979756;28;20026;-59
2023/03/12 10:44:40;;;;;;;18.85;10.40;;;;;;;;;;4980353;28;20046;-59
2023/03/12 10:47:06;;;;;;;26.70;15.70;;;;;;;;;;4981248;28;20038;-59
2023/03/12 10:49:36;;;;;;;35.13;18.05;;;;;;;;;;4977067;28;20113;-61
2023/03/12 10:52:04;;;;;;;23.70;12.90;;;;;;;;;;4977025;28;20030;-62
2023/03/12 10:54:39;;;;;;;21.60;11.95;;;;;;;;;;4974356;28;20244;-65
2023/03/12 10:57:06;;;;;;;;;;;;;;;;;;4961708;28;20030;-64
2023/03/12 10:59:35;;;;;;;19.15;10.05;;;;;;;;;;4966800;28;20149;-60
2023/03/12 11:02:02;;;;;;;21.63;10.02;;;;;;;;;;4977907;28;21143;-60
2023/03/12 11:04:31;;;;;;;17.05;10.18;;;;;;;;;;4975019;28;20022;-62
2023/03/12 11:07:15;;;;;;;20.63;11.07;;;;;;;;;;4972923;28;20036;-64
2023/03/12 11:09:40;;;;;;;24.02;11.00;;;;;;;;;;4973651;28;20026;-61
2023/03/12 11:12:26;;;;;;;18.27;10.18;;;;;;;;;;4973849;28;20093;-59
2023/03/12 11:14:52;;;;;;;19.48;11.40;;;;;;;;;;4969609;28;20395;-62
2023/03/12 11:17:27;;;;;;;21.25;12.63;;;;;;;;;;4978846;28;20022;-62
2023/03/12 11:19:52;;;;;;;21.52;11.27;;;;;;;;;;4971746;28;20030;-63
2023/03/12 11:22:28;;;;;;;21.65;10.85;;;;;;;;;;4975078;28;20041;-64
2023/03/12 11:24:58;;;;;;;26.40;12.40;;;;;;;;;;4972449;28;20034;-59
2023/03/12 11:27:43;;;;;;;26.55;11.95;;;;;;;;;;4974682;28;20133;-60
2023/03/12 11:30:20;;;;;;;19.58;10.55;;;;;;;;;;4977456;28;20033;-61
2023/03/12 11:32:46;;;;;;;20.08;9.73;;;;;;;;;;4972884;28;20053;-61
2023/03/12 11:35:13;;;;;;;16.10;9.45;;;;;;;;;;4974184;28;20034;-64
2023/03/12 11:37:38;;;;;;;21.15;10.35;;;;;;;;;;4975308;28;20037;-62
2023/03/12 11:40:09;;;;;;;17.50;9.38;;;;;;;;;;4972428;28;20031;-63
2023/03/12 11:42:40;;;;;;;17.85;9.82;;;;;;;;;;4977947;28;20776;-61
2023/03/12 11:45:24;;;;;;;19.80;11.57;;;;;;;;;;4969350;28;20547;-62
2023/03/12 11:48:10;;;;;;;18.65;10.05;;;;;;;;;;4971044;28;20037;-63
2023/03/12 11:50:38;;;;;;;24.13;11.77;;;;;;;;;;4975514;28;20053;-64
2023/03/12 11:53:12;;;;;;;21.40;11.25;;;;;;;;;;4968603;28;20026;-65
2023/03/12 11:55:47;;;;;;;15.90;9.88;;;;;;;;;;4972420;28;20321;-62
2023/03/12 11:58:12;;;;;;;15.48;8.93;;;;;;;;;;4978052;28;20037;-61
2023/03/12 12:00:50;;;;;;;17.25;10.68;;;;;;;;;;4970201;28;20022;-62
2023/03/12 12:03:30;;;;;;;20.33;9.60;;;;;;;;;;4972362;28;20041;-61
2023/03/12 12:05:59;;;;;;;17.38;9.98;;;;;;;;;;4974327;28;20033;-62
2023/03/12 12:08:24;;;;;;;18.05;10.45;;;;;;;;;;4968924;28;20027;-61
2023/03/12 12:11:11;;;;;;;77.88;28.25;;;;;;;;;;4977890;28;20041;-61
2023/03/12 12:13:42;;;;;;;45.78;18.25;;;;;;;;;;4975453;28;20464;-63
2023/03/12 12:16:13;;;;;;;32.85;14.07;;;;;;;;;;4973360;28;20561;-63
2023/03/12 12:18:57;;;;;;;22.88;11.90;;;;;;;;;;4977846;28;20030;-62
2023/03/12 12:21:36;;;;;;;19.55;11.13;;;;;;;;;;4970661;28;20041;-60
2023/03/12 12:24:04;;;;;;;23.58;13.10;;;;;;;;;;4971402;28;20034;-60
2023/03/12 12:26:29;;;;;;;18.27;11.20;;;;;;;;;;4977578;28;20555;-60
2023/03/12 12:29:13;;;;;;;18.13;11.85;;;;;;;;;;4971123;28;20057;-62
2023/03/12 12:31:45;;;;;;;18.25;11.13;;;;;;;;;;4965400;28;20027;-61
2023/03/12 12:34:28;;;;;;;17.00;10.30;;;;;;;;;;4977821;28;20195;-62
2023/03/12 12:37:06;;;;;;;19.42;9.88;;;;;;;;;;4971652;28;20491;-60
2023/03/12 12:39:32;;;;;;;15.25;9.75;;;;;;;;;;4972157;28;20058;-64
2023/03/12 12:42:00;;;;;;;16.02;9.55;;;;;;;;;;4978348;28;20035;-61
2023/03/12 12:44:30;;;;;;;14.95;9.57;;;;;;;;;;4973204;28;20027;-59
2023/03/12 12:47:04;;;;;;;15.30;9.38;;;;;;;;;;4985310;28;20023;-60
2023/03/12 12:49:35;;;;;;;14.18;9.43;;;;;;;;;;4988688;28;20034;-61
2023/03/12 12:52:03;;;;;;;13.75;9.32;;;;;;;;;;4976561;28;20030;-60
2023/03/12 12:54:41;;;;;;;13.93;8.55;;;;;;;;;;4995603;28;20836;-61
2023/03/12 12:57:09;;;;;;;15.00;8.95;;;;;;;;;;4973116;28;20104;-61
2023/03/12 12:59:51;;;;;;;11.65;8.93;;;;;;;;;;4976313;28;20073;-60
2023/03/12 13:02:19;;;;;;;12.07;7.80;;;;;;;;;;4981971;28;20030;-62
2023/03/12 13:04:45;;;;;;;15.55;8.50;;;;;;;;;;4967949;28;20679;-60
2023/03/12 13:07:10;;;;;;;12.98;8.25;;;;;;;;;;4981755;28;20029;-61
2023/03/12 13:09:38;;;;;;;11.75;7.80;;;;;;;;;;4972296;28;20391;-60
2023/03/12 13:12:21;;;;;;;11.10;7.88;;;;;;;;;;4973055;28;20030;-62
2023/03/12 13:14:48;;;;;;;13.75;7.75;;;;;;;;;;4996240;28;20042;-64
2023/03/12 13:17:22;;;;;;;20.52;12.38;;;;;;;;;;4973655;28;20030;-64
2023/03/12 13:19:52;;;;;;;14.95;8.40;;;;;;;;;;4988856;28;20026;-65
2023/03/12 13:22:23;;;;;;;14.65;8.07;;;;;;;;;;4980099;28;20105;-64
2023/03/12 13:25:07;;;;;;;11.70;6.57;;;;;;;;;;4974373;28;20035;-61
2023/03/12 13:27:38;;;;;;;9.70;6.80;;;;;;;;;;4983267;28;20038;-61
2023/03/12 13:30:22;;;;;;;10.85;6.40;;;;;;;;;;4968712;28;20355;-61
2023/03/12 13:32:47;;;;;;;10.43;6.72;;;;;;;;;;4977603;28;20284;-61
2023/03/12 13:35:15;;;;;;;13.77;7.10;;;;;;;;;;4982125;28;20556;-61
2023/03/12 13:37:50;;;;;;;13.63;7.20;;;;;;;;;;4983250;28;20034;-65
2023/03/12 13:40:44;;;;;;;17.50;8.02;;;;;;;;;;4975523;28;20112;-65
2023/03/12 13:43:12;;;;;;;30.95;13.30;;;;;;;;;;4981087;28;20042;-63
2023/03/12 13:45:44;;;;;;;19.70;8.80;;;;;;;;;;4972276;28;20104;-64
2023/03/12 13:48:17;;;;;;;12.35;6.70;;;;;;;;;;4975506;28;20144;-61
2023/03/12 13:50:50;;;;;;;13.70;7.20;;;;;;;;;;4982004;28;20038;-61
2023/03/12 13:53:20;;;;;;;8.45;4.75;;;;;;;;;;4975253;28;20031;-63
2023/03/12 13:55:48;;;;;;;7.50;3.10;;;;;;;;;;4981838;28;20038;-61
2023/03/12 13:58:20;;;;;;;9.10;3.10;;;;;;;;;;4977170;28;20129;-61
2023/03/12 14:00:51;;;;;;;8.38;2.88;;;;;;;;;;4976535;28;20027;-62
2023/03/12 14:03:24;;;;;;;8.63;3.08;;;;;;;;;;4980647;28;20041;-64
2023/03/12 14:05:56;;;;;;;7.32;2.55;;;;;;;;;;4977647;28;20034;-61
2023/03/12 14:08:24;;;;;;;4.82;2.15;;;;;;;;;;4975141;28;21671;-61
2023/03/12 14:11:00;;;;;;;8.75;2.65;;;;;;;;;;4981085;28;20085;-65
2023/03/12 14:13:28;;;;;;;8.82;2.80;;;;;;;;;;4975591;28;20053;-61
2023/03/12 14:16:12;;;;;;;6.97;2.65;;;;;;;;;;4982562;28;20065;-61
2023/03/12 14:18:38;;;;;;;11.25;2.92;;;;;;;;;;4983088;28;20030;-61
2023/03/12 14:21:08;;;;;;;8.00;2.55;;;;;;;;;;4976373;28;20022;-61
2023/03/12 14:23:36;;;;;;;8.20;2.28;;;;;;;;;;4981910;28;20093;-60
2023/03/12 14:26:02;;;;;;;9.38;2.42;;;;;;;;;;4977084;28;20495;-61
2023/03/12 14:28:28;;;;;;;5.27;2.30;;;;;;;;;;4974107;28;20042;-61
2023/03/12 14:30:57;;;;;;;5.93;2.00;;;;;;;;;;4979648;28;20290;-62
2023/03/12 14:33:23;;;;;;;7.25;2.33;;;;;;;;;;4976415;28;20030;-61
2023/03/12 14:35:51;;;;;;;10.80;2.28;;;;;;;;;;4978282;28;20088;-60